sensor_id;sensor_type;location;lat;lon;timestamp;temperature;humidity
42913;DHT22;50720;54.324;18.558;2023-07-20T00:01:43;12.50;99.90
42913;DHT22;50720;54.324;18.558;2023-07-20T00:04:13;12.50;99.90
42913;DHT22;50720;54.324;18.558;2023-07-20T00:06:44;12.40;99.90
42913;DHT22;50720;54.324;18.558;2023-07-20T00:09:14;12.50;99.90
42913;DHT22;50720;54.324;18.558;2023-07-20T00:11:49;12.50;99.90
42913;DHT22;50720;54.324;18.558;2023-07-20T00:14:19;12.40;99.90
42913;DHT22;50720;54.324;18.558;2023-07-20T00:16:50;12.40;99.90
42913;DHT22;50720;54.324;18.558;2023-07-20T00:19:24;12.40;99.90
42913;DHT22;50720;54.324;18.558;2023-07-20T00:21:56;12.40;99.90
42913;DHT22;50720;54.324;18.558;2023-07-20T00:24:27;12.30;99.90
42913;DHT22;50720;54.324;18.558;2023-07-20T00:26:56;12.20;99.90
42913;DHT22;50720;54.324;18.558;2023-07-20T00:29:26;12.30;99.90
42913;DHT22;50720;54.324;18.558;2023-07-20T00:31:56;12.20;99.90
42913;DHT22;50720;54.324;18.558;2023-07-20T00:34:26;12.20;99.90
42913;DHT22;50720;54.324;18.558;2023-07-20T00:36:58;12.30;99.90
42913;DHT22;50720;54.324;18.558;2023-07-20T00:39:28;12.20;99.90
42913;DHT22;50720;54.324;18.558;2023-07-20T00:41:58;12.30;99.90
42913;DHT22;50720;54.324;18.558;2023-07-20T00:44:28;12.30;99.90
42913;DHT22;50720;54.324;18.558;2023-07-20T00:46:58;12.30;99.90
42913;DHT22;50720;54.324;18.558;2023-07-20T00:49:28;12.20;99.90
42913;DHT22;50720;54.324;18.558;2023-07-20T00:52:01;12.20;99.90
42913;DHT22;50720;54.324;18.558;2023-07-20T00:54:31;12.20;99.90
42913;DHT22;50720;54.324;18.558;2023-07-20T00:57:01;12.10;99.90
42913;DHT22;50720;54.324;18.558;2023-07-20T00:59:32;12.10;99.90
42913;DHT22;50720;54.324;18.558;2023-07-20T01:02:02;12.10;99.90
42913;DHT22;50720;54.324;18.558;2023-07-20T01:04:32;12.10;99.90
42913;DHT22;50720;54.324;18.558;2023-07-20T01:07:10;12.10;99.90
42913;DHT22;50720;54.324;18.558;2023-07-20T01:09:46;12.10;99.90
42913;DHT22;50720;54.324;18.558;2023-07-20T01:12:25;12.10;99.90
42913;DHT22;50720;54.324;18.558;2023-07-20T01:14:56;12.10;99.90
42913;DHT22;50720;54.324;18.558;2023-07-20T01:17:26;12.10;99.90
42913;DHT22;50720;54.324;18.558;2023-07-20T01:19:56;12.10;99.90
42913;DHT22;50720;54.324;18.558;2023-07-20T01:22:47;12.10;99.90
42913;DHT22;50720;54.324;18.558;2023-07-20T01:25:45;12.20;99.90
42913;DHT22;50720;54.324;18.558;2023-07-20T01:28:37;12.20;99.90
42913;DHT22;50720;54.324;18.558;2023-07-20T01:31:21;12.20;99.90
42913;DHT22;50720;54.324;18.558;2023-07-20T01:33:56;12.30;99.90
42913;DHT22;50720;54.324;18.558;2023-07-20T01:36:28;12.30;99.90
42913;DHT22;50720;54.324;18.558;2023-07-20T01:38:59;12.30;99.90
42913;DHT22;50720;54.324;18.558;2023-07-20T01:41:29;12.30;99.90
42913;DHT22;50720;54.324;18.558;2023-07-20T01:43:59;12.40;99.90
42913;DHT22;50720;54.324;18.558;2023-07-20T01:46:30;12.30;99.90
42913;DHT22;50720;54.324;18.558;2023-07-20T01:49:00;12.40;99.90
42913;DHT22;50720;54.324;18.558;2023-07-20T01:51:30;12.40;99.90
42913;DHT22;50720;54.324;18.558;2023-07-20T01:54:00;12.40;99.90
42913;DHT22;50720;54.324;18.558;2023-07-20T01:56:30;12.50;99.90
42913;DHT22;50720;54.324;18.558;2023-07-20T01:59:00;12.50;99.90
42913;DHT22;50720;54.324;18.558;2023-07-20T02:01:31;12.50;99.90
42913;DHT22;50720;54.324;18.558;2023-07-20T02:04:02;12.50;99.90
42913;DHT22;50720;54.324;18.558;2023-07-20T02:06:32;12.40;99.90
42913;DHT22;50720;54.324;18.558;2023-07-20T02:09:01;12.50;99.90
42913;DHT22;50720;54.324;18.558;2023-07-20T02:11:31;12.40;99.90
42913;DHT22;50720;54.324;18.558;2023-07-20T02:14:01;12.40;99.90
42913;DHT22;50720;54.324;18.558;2023-07-20T02:16:33;12.40;99.90
42913;DHT22;50720;54.324;18.558;2023-07-20T02:19:02;12.40;99.90
42913;DHT22;50720;54.324;18.558;2023-07-20T02:21:35;12.40;99.90
42913;DHT22;50720;54.324;18.558;2023-07-20T02:24:05;12.40;99.90
42913;DHT22;50720;54.324;18.558;2023-07-20T02:26:35;12.30;99.90
42913;DHT22;50720;54.324;18.558;2023-07-20T02:29:05;12.40;99.90
42913;DHT22;50720;54.324;18.558;2023-07-20T02:31:38;12.30;99.90
42913;DHT22;50720;54.324;18.558;2023-07-20T02:34:08;12.30;99.90
42913;DHT22;50720;54.324;18.558;2023-07-20T02:36:38;12.40;99.90
42913;DHT22;50720;54.324;18.558;2023-07-20T02:39:10;12.40;99.90
42913;DHT22;50720;54.324;18.558;2023-07-20T02:41:41;12.40;99.90
42913;DHT22;50720;54.324;18.558;2023-07-20T02:44:10;12.40;99.90
42913;DHT22;50720;54.324;18.558;2023-07-20T02:46:42;12.50;99.90
42913;DHT22;50720;54.324;18.558;2023-07-20T02:49:12;12.50;99.90
42913;DHT22;50720;54.324;18.558;2023-07-20T02:51:42;12.60;99.90
42913;DHT22;50720;54.324;18.558;2023-07-20T02:54:12;12.60;99.90
42913;DHT22;50720;54.324;18.558;2023-07-20T02:56:42;12.60;99.90
42913;DHT22;50720;54.324;18.558;2023-07-20T02:59:12;12.70;99.90
42913;DHT22;50720;54.324;18.558;2023-07-20T03:01:44;12.70;99.90
42913;DHT22;50720;54.324;18.558;2023-07-20T03:04:14;12.70;99.90
42913;DHT22;50720;54.324;18.558;2023-07-20T03:06:44;12.70;99.90
42913;DHT22;50720;54.324;18.558;2023-07-20T03:09:14;12.80;99.90
42913;DHT22;50720;54.324;18.558;2023-07-20T03:11:44;12.80;99.90
42913;DHT22;50720;54.324;18.558;2023-07-20T03:14:14;12.90;99.90
42913;DHT22;50720;54.324;18.558;2023-07-20T03:16:45;12.90;99.90
42913;DHT22;50720;54.324;18.558;2023-07-20T03:19:15;13.00;99.90
42913;DHT22;50720;54.324;18.558;2023-07-20T03:21:45;13.00;99.90
42913;DHT22;50720;54.324;18.558;2023-07-20T03:24:16;13.10;99.90
42913;DHT22;50720;54.324;18.558;2023-07-20T03:26:46;13.10;99.90
42913;DHT22;50720;54.324;18.558;2023-07-20T03:29:16;13.10;99.90
42913;DHT22;50720;54.324;18.558;2023-07-20T03:31:47;13.10;99.90
42913;DHT22;50720;54.324;18.558;2023-07-20T03:34:17;13.10;99.90
42913;DHT22;50720;54.324;18.558;2023-07-20T03:36:47;13.20;99.90
42913;DHT22;50720;54.324;18.558;2023-07-20T03:39:16;13.20;99.90
42913;DHT22;50720;54.324;18.558;2023-07-20T03:41:47;13.30;99.90
42913;DHT22;50720;54.324;18.558;2023-07-20T03:44:16;13.40;99.90
42913;DHT22;50720;54.324;18.558;2023-07-20T03:46:48;13.40;99.90
42913;DHT22;50720;54.324;18.558;2023-07-20T03:49:17;13.40;99.90
42913;DHT22;50720;54.324;18.558;2023-07-20T03:51:48;13.50;99.90
42913;DHT22;50720;54.324;18.558;2023-07-20T03:54:17;13.50;99.90
42913;DHT22;50720;54.324;18.558;2023-07-20T03:56:47;13.60;99.90
42913;DHT22;50720;54.324;18.558;2023-07-20T03:59:17;13.50;99.90
42913;DHT22;50720;54.324;18.558;2023-07-20T04:01:48;13.60;99.90
42913;DHT22;50720;54.324;18.558;2023-07-20T04:04:18;13.70;99.90
42913;DHT22;50720;54.324;18.558;2023-07-20T04:06:48;13.80;99.90
42913;DHT22;50720;54.324;18.558;2023-07-20T04:09:18;13.80;99.90
42913;DHT22;50720;54.324;18.558;2023-07-20T04:11:48;13.90;99.90
42913;DHT22;50720;54.324;18.558;2023-07-20T04:14:18;13.90;99.90
42913;DHT22;50720;54.324;18.558;2023-07-20T04:16:49;14.00;99.90
42913;DHT22;50720;54.324;18.558;2023-07-20T04:19:19;14.00;99.90
42913;DHT22;50720;54.324;18.558;2023-07-20T04:24:19;13.90;99.90
42913;DHT22;50720;54.324;18.558;2023-07-20T04:26:49;14.00;99.90
42913;DHT22;50720;54.324;18.558;2023-07-20T04:29:19;14.20;99.90
42913;DHT22;50720;54.324;18.558;2023-07-20T04:31:51;14.10;99.90
42913;DHT22;50720;54.324;18.558;2023-07-20T04:34:20;14.20;99.90
42913;DHT22;50720;54.324;18.558;2023-07-20T04:36:50;14.20;99.90
42913;DHT22;50720;54.324;18.558;2023-07-20T04:39:20;14.20;99.90
42913;DHT22;50720;54.324;18.558;2023-07-20T04:41:59;14.30;99.90
42913;DHT22;50720;54.324;18.558;2023-07-20T04:44:29;14.30;99.90
42913;DHT22;50720;54.324;18.558;2023-07-20T04:47:00;14.30;99.90
42913;DHT22;50720;54.324;18.558;2023-07-20T04:49:30;14.30;99.90
42913;DHT22;50720;54.324;18.558;2023-07-20T04:52:00;14.30;99.90
42913;DHT22;50720;54.324;18.558;2023-07-20T04:54:30;14.30;99.90
42913;DHT22;50720;54.324;18.558;2023-07-20T04:57:00;14.40;99.90
42913;DHT22;50720;54.324;18.558;2023-07-20T04:59:30;14.40;99.90
42913;DHT22;50720;54.324;18.558;2023-07-20T05:02:04;14.40;99.90
42913;DHT22;50720;54.324;18.558;2023-07-20T05:04:34;14.40;99.90
42913;DHT22;50720;54.324;18.558;2023-07-20T05:07:06;14.40;99.90
42913;DHT22;50720;54.324;18.558;2023-07-20T05:09:36;14.50;99.90
42913;DHT22;50720;54.324;18.558;2023-07-20T05:12:06;14.50;99.90
42913;DHT22;50720;54.324;18.558;2023-07-20T05:14:36;14.50;99.90
42913;DHT22;50720;54.324;18.558;2023-07-20T05:17:08;14.60;99.90
42913;DHT22;50720;54.324;18.558;2023-07-20T05:19:37;14.60;99.90
42913;DHT22;50720;54.324;18.558;2023-07-20T05:22:13;14.70;99.90
42913;DHT22;50720;54.324;18.558;2023-07-20T05:24:43;14.70;99.90
42913;DHT22;50720;54.324;18.558;2023-07-20T05:27:13;14.70;99.90
42913;DHT22;50720;54.324;18.558;2023-07-20T05:29:44;14.80;99.90
42913;DHT22;50720;54.324;18.558;2023-07-20T05:32:16;14.90;99.90
42913;DHT22;50720;54.324;18.558;2023-07-20T05:34:45;15.00;99.90
42913;DHT22;50720;54.324;18.558;2023-07-20T05:37:15;15.00;99.90
42913;DHT22;50720;54.324;18.558;2023-07-20T05:39:45;15.20;99.90
42913;DHT22;50720;54.324;18.558;2023-07-20T05:42:15;15.20;99.90
42913;DHT22;50720;54.324;18.558;2023-07-20T05:44:45;15.40;99.90
42913;DHT22;50720;54.324;18.558;2023-07-20T05:47:17;15.50;99.90
42913;DHT22;50720;54.324;18.558;2023-07-20T05:49:47;15.50;99.90
42913;DHT22;50720;54.324;18.558;2023-07-20T05:52:17;15.60;99.90
42913;DHT22;50720;54.324;18.558;2023-07-20T05:54:47;15.70;99.90
42913;DHT22;50720;54.324;18.558;2023-07-20T05:57:17;15.80;99.90
42913;DHT22;50720;54.324;18.558;2023-07-20T05:59:46;15.70;99.90
42913;DHT22;50720;54.324;18.558;2023-07-20T06:02:18;15.70;99.90
42913;DHT22;50720;54.324;18.558;2023-07-20T06:04:48;15.80;99.90
42913;DHT22;50720;54.324;18.558;2023-07-20T06:07:18;15.80;99.90
42913;DHT22;50720;54.324;18.558;2023-07-20T06:09:47;15.70;99.90
42913;DHT22;50720;54.324;18.558;2023-07-20T06:12:18;15.70;99.90
42913;DHT22;50720;54.324;18.558;2023-07-20T06:14:47;15.60;99.90
42913;DHT22;50720;54.324;18.558;2023-07-20T06:17:19;15.60;99.90
42913;DHT22;50720;54.324;18.558;2023-07-20T06:19:48;15.60;99.90
42913;DHT22;50720;54.324;18.558;2023-07-20T06:22:18;15.60;99.90
42913;DHT22;50720;54.324;18.558;2023-07-20T06:24:48;15.70;99.90
42913;DHT22;50720;54.324;18.558;2023-07-20T06:27:18;15.90;99.90
42913;DHT22;50720;54.324;18.558;2023-07-20T06:29:48;15.80;99.90
42913;DHT22;50720;54.324;18.558;2023-07-20T06:32:19;15.90;99.90
42913;DHT22;50720;54.324;18.558;2023-07-20T06:34:49;16.00;99.90
42913;DHT22;50720;54.324;18.558;2023-07-20T06:37:19;16.00;99.90
42913;DHT22;50720;54.324;18.558;2023-07-20T06:39:49;16.00;99.90
42913;DHT22;50720;54.324;18.558;2023-07-20T06:42:22;16.00;99.90
42913;DHT22;50720;54.324;18.558;2023-07-20T06:44:52;16.10;99.90
42913;DHT22;50720;54.324;18.558;2023-07-20T06:47:23;16.20;99.90
42913;DHT22;50720;54.324;18.558;2023-07-20T06:49:53;16.10;99.90
42913;DHT22;50720;54.324;18.558;2023-07-20T06:52:23;16.20;99.90
42913;DHT22;50720;54.324;18.558;2023-07-20T06:54:53;16.10;99.90
42913;DHT22;50720;54.324;18.558;2023-07-20T06:57:23;16.10;99.90
42913;DHT22;50720;54.324;18.558;2023-07-20T06:59:52;16.10;99.90
42913;DHT22;50720;54.324;18.558;2023-07-20T07:02:24;16.10;99.90
42913;DHT22;50720;54.324;18.558;2023-07-20T07:04:54;16.10;99.90
42913;DHT22;50720;54.324;18.558;2023-07-20T07:07:27;16.00;99.90
42913;DHT22;50720;54.324;18.558;2023-07-20T07:09:57;15.90;99.90
42913;DHT22;50720;54.324;18.558;2023-07-20T07:12:27;15.90;99.90
42913;DHT22;50720;54.324;18.558;2023-07-20T07:14:57;15.90;99.90
42913;DHT22;50720;54.324;18.558;2023-07-20T07:17:28;16.00;99.90
42913;DHT22;50720;54.324;18.558;2023-07-20T07:20:01;16.00;99.90
42913;DHT22;50720;54.324;18.558;2023-07-20T07:22:33;16.00;99.90
42913;DHT22;50720;54.324;18.558;2023-07-20T07:25:03;16.10;99.90
42913;DHT22;50720;54.324;18.558;2023-07-20T07:27:34;16.10;99.90
42913;DHT22;50720;54.324;18.558;2023-07-20T07:30:05;16.20;99.90
42913;DHT22;50720;54.324;18.558;2023-07-20T07:32:37;16.30;99.90
42913;DHT22;50720;54.324;18.558;2023-07-20T07:35:07;16.30;99.90
42913;DHT22;50720;54.324;18.558;2023-07-20T07:37:37;16.30;99.90
42913;DHT22;50720;54.324;18.558;2023-07-20T07:40:24;16.30;99.90
42913;DHT22;50720;54.324;18.558;2023-07-20T07:42:54;16.50;99.90
42913;DHT22;50720;54.324;18.558;2023-07-20T07:45:23;16.50;99.90
42913;DHT22;50720;54.324;18.558;2023-07-20T07:47:55;16.60;99.90
42913;DHT22;50720;54.324;18.558;2023-07-20T07:50:25;16.70;99.90
42913;DHT22;50720;54.324;18.558;2023-07-20T07:52:55;17.00;99.90
42913;DHT22;50720;54.324;18.558;2023-07-20T07:55:25;17.20;99.90
42913;DHT22;50720;54.324;18.558;2023-07-20T07:57:56;17.50;99.90
42913;DHT22;50720;54.324;18.558;2023-07-20T08:00:26;17.70;99.90
42913;DHT22;50720;54.324;18.558;2023-07-20T08:02:57;17.90;99.90
42913;DHT22;50720;54.324;18.558;2023-07-20T08:05:28;18.10;99.90
42913;DHT22;50720;54.324;18.558;2023-07-20T08:07:58;18.20;99.90
42913;DHT22;50720;54.324;18.558;2023-07-20T08:10:28;18.30;99.90
42913;DHT22;50720;54.324;18.558;2023-07-20T08:13:00;18.40;99.90
42913;DHT22;50720;54.324;18.558;2023-07-20T08:15:29;18.50;99.90
42913;DHT22;50720;54.324;18.558;2023-07-20T08:18:01;18.60;99.90
42913;DHT22;50720;54.324;18.558;2023-07-20T08:20:31;18.50;99.90
42913;DHT22;50720;54.324;18.558;2023-07-20T08:23:04;18.70;99.90
42913;DHT22;50720;54.324;18.558;2023-07-20T08:25:36;18.80;99.90
42913;DHT22;50720;54.324;18.558;2023-07-20T08:28:08;18.70;99.90
42913;DHT22;50720;54.324;18.558;2023-07-20T08:30:41;18.80;99.90
42913;DHT22;50720;54.324;18.558;2023-07-20T08:33:14;18.80;99.90
42913;DHT22;50720;54.324;18.558;2023-07-20T08:35:44;18.90;99.90
42913;DHT22;50720;54.324;18.558;2023-07-20T08:38:14;18.90;99.90
42913;DHT22;50720;54.324;18.558;2023-07-20T08:40:45;19.10;99.90
42913;DHT22;50720;54.324;18.558;2023-07-20T08:43:16;19.20;99.90
42913;DHT22;50720;54.324;18.558;2023-07-20T08:45:47;19.20;99.90
42913;DHT22;50720;54.324;18.558;2023-07-20T08:48:20;19.10;99.90
42913;DHT22;50720;54.324;18.558;2023-07-20T08:50:51;19.20;99.90
42913;DHT22;50720;54.324;18.558;2023-07-20T08:53:22;19.10;99.90
42913;DHT22;50720;54.324;18.558;2023-07-20T08:55:52;19.10;99.90
42913;DHT22;50720;54.324;18.558;2023-07-20T08:58:24;19.10;99.90
42913;DHT22;50720;54.324;18.558;2023-07-20T09:00:56;18.90;99.90
42913;DHT22;50720;54.324;18.558;2023-07-20T09:03:29;18.90;99.90
42913;DHT22;50720;54.324;18.558;2023-07-20T09:05:59;19.10;99.90
42913;DHT22;50720;54.324;18.558;2023-07-20T09:08:29;19.10;99.90
42913;DHT22;50720;54.324;18.558;2023-07-20T09:10:59;19.00;99.90
42913;DHT22;50720;54.324;18.558;2023-07-20T09:13:29;19.00;99.90
42913;DHT22;50720;54.324;18.558;2023-07-20T09:16:00;18.80;99.90
42913;DHT22;50720;54.324;18.558;2023-07-20T09:18:35;18.70;99.90
42913;DHT22;50720;54.324;18.558;2023-07-20T09:21:05;18.80;99.90
42913;DHT22;50720;54.324;18.558;2023-07-20T09:23:35;18.70;99.90
42913;DHT22;50720;54.324;18.558;2023-07-20T09:26:10;18.90;99.90
42913;DHT22;50720;54.324;18.558;2023-07-20T09:28:47;18.90;99.90
42913;DHT22;50720;54.324;18.558;2023-07-20T09:31:18;19.00;99.90
42913;DHT22;50720;54.324;18.558;2023-07-20T09:33:52;19.10;99.90
42913;DHT22;50720;54.324;18.558;2023-07-20T09:36:27;19.20;99.90
42913;DHT22;50720;54.324;18.558;2023-07-20T09:39:00;19.20;99.90
42913;DHT22;50720;54.324;18.558;2023-07-20T09:41:40;19.40;99.90
42913;DHT22;50720;54.324;18.558;2023-07-20T09:44:14;19.50;99.90
42913;DHT22;50720;54.324;18.558;2023-07-20T09:46:48;19.50;99.90
42913;DHT22;50720;54.324;18.558;2023-07-20T09:49:23;19.60;99.90
42913;DHT22;50720;54.324;18.558;2023-07-20T09:51:58;19.60;99.90
42913;DHT22;50720;54.324;18.558;2023-07-20T09:54:32;19.50;99.90
42913;DHT22;50720;54.324;18.558;2023-07-20T09:57:02;19.20;99.90
42913;DHT22;50720;54.324;18.558;2023-07-20T09:59:34;18.80;99.90
42913;DHT22;50720;54.324;18.558;2023-07-20T10:02:10;18.20;99.90
42913;DHT22;50720;54.324;18.558;2023-07-20T10:04:44;17.80;99.90
42913;DHT22;50720;54.324;18.558;2023-07-20T10:07:14;17.10;99.90
42913;DHT22;50720;54.324;18.558;2023-07-20T10:09:44;16.70;99.90
42913;DHT22;50720;54.324;18.558;2023-07-20T10:12:15;16.40;99.90
42913;DHT22;50720;54.324;18.558;2023-07-20T10:14:53;16.20;99.90
42913;DHT22;50720;54.324;18.558;2023-07-20T10:17:28;16.20;99.90
42913;DHT22;50720;54.324;18.558;2023-07-20T10:20:00;16.90;99.90
42913;DHT22;50720;54.324;18.558;2023-07-20T10:22:35;16.90;99.90
42913;DHT22;50720;54.324;18.558;2023-07-20T10:25:09;17.40;99.90
42913;DHT22;50720;54.324;18.558;2023-07-20T10:27:39;17.80;99.90
42913;DHT22;50720;54.324;18.558;2023-07-20T10:30:10;18.10;99.90
42913;DHT22;50720;54.324;18.558;2023-07-20T10:32:40;18.10;99.90
42913;DHT22;50720;54.324;18.558;2023-07-20T10:35:17;18.20;99.90
42913;DHT22;50720;54.324;18.558;2023-07-20T10:37:52;18.20;99.90
42913;DHT22;50720;54.324;18.558;2023-07-20T10:40:27;18.20;99.90
42913;DHT22;50720;54.324;18.558;2023-07-20T10:42:59;18.20;99.90
42913;DHT22;50720;54.324;18.558;2023-07-20T10:45:48;18.10;99.90
42913;DHT22;50720;54.324;18.558;2023-07-20T10:48:19;18.10;99.90
42913;DHT22;50720;54.324;18.558;2023-07-20T10:51:10;18.00;99.90
42913;DHT22;50720;54.324;18.558;2023-07-20T10:53:41;17.90;99.90
42913;DHT22;50720;54.324;18.558;2023-07-20T10:56:12;17.90;99.90
42913;DHT22;50720;54.324;18.558;2023-07-20T10:58:43;17.60;99.90
42913;DHT22;50720;54.324;18.558;2023-07-20T11:01:16;17.40;99.90
42913;DHT22;50720;54.324;18.558;2023-07-20T11:03:49;17.30;99.90
42913;DHT22;50720;54.324;18.558;2023-07-20T11:06:33;17.20;99.90
42913;DHT22;50720;54.324;18.558;2023-07-20T11:09:07;17.20;99.90
42913;DHT22;50720;54.324;18.558;2023-07-20T11:11:40;17.30;99.90
42913;DHT22;50720;54.324;18.558;2023-07-20T11:14:10;17.30;99.90
42913;DHT22;50720;54.324;18.558;2023-07-20T11:16:51;17.40;99.90
42913;DHT22;50720;54.324;18.558;2023-07-20T11:19:23;17.50;99.90
42913;DHT22;50720;54.324;18.558;2023-07-20T11:21:58;17.50;99.90
42913;DHT22;50720;54.324;18.558;2023-07-20T11:24:31;17.50;99.90
42913;DHT22;50720;54.324;18.558;2023-07-20T11:27:02;17.60;99.90
42913;DHT22;50720;54.324;18.558;2023-07-20T11:29:32;18.00;99.90
42913;DHT22;50720;54.324;18.558;2023-07-20T11:32:03;18.30;99.90
42913;DHT22;50720;54.324;18.558;2023-07-20T11:34:34;18.30;99.90
42913;DHT22;50720;54.324;18.558;2023-07-20T11:37:06;18.40;99.90
42913;DHT22;50720;54.324;18.558;2023-07-20T11:39:39;18.40;99.90
42913;DHT22;50720;54.324;18.558;2023-07-20T11:42:09;18.50;99.90
42913;DHT22;50720;54.324;18.558;2023-07-20T11:44:40;18.80;99.90
42913;DHT22;50720;54.324;18.558;2023-07-20T11:47:11;18.80;99.90
42913;DHT22;50720;54.324;18.558;2023-07-20T11:49:42;19.20;99.90
42913;DHT22;50720;54.324;18.558;2023-07-20T11:52:16;19.90;99.90
42913;DHT22;50720;54.324;18.558;2023-07-20T11:54:46;20.70;99.90
42913;DHT22;50720;54.324;18.558;2023-07-20T11:57:17;21.40;99.90
42913;DHT22;50720;54.324;18.558;2023-07-20T11:59:53;22.20;99.90
42913;DHT22;50720;54.324;18.558;2023-07-20T12:02:27;22.00;99.90
42913;DHT22;50720;54.324;18.558;2023-07-20T12:04:57;21.70;99.90
42913;DHT22;50720;54.324;18.558;2023-07-20T12:07:29;21.60;99.90
42913;DHT22;50720;54.324;18.558;2023-07-20T12:10:06;21.60;99.90
42913;DHT22;50720;54.324;18.558;2023-07-20T12:12:38;21.90;99.90
42913;DHT22;50720;54.324;18.558;2023-07-20T12:15:14;22.00;99.90
42913;DHT22;50720;54.324;18.558;2023-07-20T12:17:44;21.80;99.90
42913;DHT22;50720;54.324;18.558;2023-07-20T12:20:25;21.60;99.90
42913;DHT22;50720;54.324;18.558;2023-07-20T12:23:01;21.20;99.90
42913;DHT22;50720;54.324;18.558;2023-07-20T12:25:36;20.90;99.90
42913;DHT22;50720;54.324;18.558;2023-07-20T12:28:08;20.30;99.90
42913;DHT22;50720;54.324;18.558;2023-07-20T12:30:38;20.70;99.90
42913;DHT22;50720;54.324;18.558;2023-07-20T12:33:08;20.90;99.90
42913;DHT22;50720;54.324;18.558;2023-07-20T12:35:38;20.80;99.90
42913;DHT22;50720;54.324;18.558;2023-07-20T12:38:09;20.60;99.90
42913;DHT22;50720;54.324;18.558;2023-07-20T12:40:40;21.00;99.90
42913;DHT22;50720;54.324;18.558;2023-07-20T12:43:09;21.60;99.90
42913;DHT22;50720;54.324;18.558;2023-07-20T12:45:39;20.60;99.90
42913;DHT22;50720;54.324;18.558;2023-07-20T12:48:09;20.60;99.90
42913;DHT22;50720;54.324;18.558;2023-07-20T12:50:39;20.50;99.90
42913;DHT22;50720;54.324;18.558;2023-07-20T12:53:10;21.20;99.90
42913;DHT22;50720;54.324;18.558;2023-07-20T12:55:40;21.90;99.90
42913;DHT22;50720;54.324;18.558;2023-07-20T12:58:11;22.30;99.90
42913;DHT22;50720;54.324;18.558;2023-07-20T13:00:41;23.10;99.90
42913;DHT22;50720;54.324;18.558;2023-07-20T13:03:11;23.80;99.90
42913;DHT22;50720;54.324;18.558;2023-07-20T13:05:58;23.80;99.90
42913;DHT22;50720;54.324;18.558;2023-07-20T13:08:33;24.10;98.60
42913;DHT22;50720;54.324;18.558;2023-07-20T13:11:02;23.40;99.10
42913;DHT22;50720;54.324;18.558;2023-07-20T13:13:33;23.50;98.70
42913;DHT22;50720;54.324;18.558;2023-07-20T13:16:03;23.50;98.90
42913;DHT22;50720;54.324;18.558;2023-07-20T13:18:33;23.10;99.40
42913;DHT22;50720;54.324;18.558;2023-07-20T13:21:03;23.10;99.10
42913;DHT22;50720;54.324;18.558;2023-07-20T13:23:41;23.10;99.90
42913;DHT22;50720;54.324;18.558;2023-07-20T13:26:11;23.20;99.70
42913;DHT22;50720;54.324;18.558;2023-07-20T13:28:40;23.20;99.90
42913;DHT22;50720;54.324;18.558;2023-07-20T13:31:10;22.40;99.90
42913;DHT22;50720;54.324;18.558;2023-07-20T13:33:42;22.50;99.90
42913;DHT22;50720;54.324;18.558;2023-07-20T13:36:23;22.30;99.80
42913;DHT22;50720;54.324;18.558;2023-07-20T13:38:56;21.60;99.90
42913;DHT22;50720;54.324;18.558;2023-07-20T13:41:27;19.70;99.90
42913;DHT22;50720;54.324;18.558;2023-07-20T13:43:58;19.50;99.90
42913;DHT22;50720;54.324;18.558;2023-07-20T13:46:27;18.90;99.90
42913;DHT22;50720;54.324;18.558;2023-07-20T13:49:00;18.30;99.90
42913;DHT22;50720;54.324;18.558;2023-07-20T13:51:31;17.80;99.90
42913;DHT22;50720;54.324;18.558;2023-07-20T13:54:02;17.80;99.90
42913;DHT22;50720;54.324;18.558;2023-07-20T13:56:35;18.50;99.90
42913;DHT22;50720;54.324;18.558;2023-07-20T13:59:05;18.80;99.90
42913;DHT22;50720;54.324;18.558;2023-07-20T14:01:35;19.30;99.90
42913;DHT22;50720;54.324;18.558;2023-07-20T14:04:06;20.10;99.90
42913;DHT22;50720;54.324;18.558;2023-07-20T14:06:36;20.20;99.90
42913;DHT22;50720;54.324;18.558;2023-07-20T14:09:07;20.70;99.90
42913;DHT22;50720;54.324;18.558;2023-07-20T14:11:37;20.70;99.90
42913;DHT22;50720;54.324;18.558;2023-07-20T14:14:10;21.20;99.90
42913;DHT22;50720;54.324;18.558;2023-07-20T14:16:39;21.10;99.90
42913;DHT22;50720;54.324;18.558;2023-07-20T14:19:09;21.20;99.90
42913;DHT22;50720;54.324;18.558;2023-07-20T14:21:39;20.80;99.90
42913;DHT22;50720;54.324;18.558;2023-07-20T14:24:11;21.00;99.90
42913;DHT22;50720;54.324;18.558;2023-07-20T14:26:41;21.40;99.90
42913;DHT22;50720;54.324;18.558;2023-07-20T14:29:11;21.40;99.90
42913;DHT22;50720;54.324;18.558;2023-07-20T14:31:41;21.60;99.90
42913;DHT22;50720;54.324;18.558;2023-07-20T14:34:13;21.60;99.90
42913;DHT22;50720;54.324;18.558;2023-07-20T14:36:43;21.90;99.90
42913;DHT22;50720;54.324;18.558;2023-07-20T14:39:14;21.90;99.90
42913;DHT22;50720;54.324;18.558;2023-07-20T14:41:44;21.50;99.90
42913;DHT22;50720;54.324;18.558;2023-07-20T14:44:14;21.70;99.90
42913;DHT22;50720;54.324;18.558;2023-07-20T14:46:44;21.70;99.90
42913;DHT22;50720;54.324;18.558;2023-07-20T14:49:29;21.70;99.90
42913;DHT22;50720;54.324;18.558;2023-07-20T14:51:59;21.70;99.90
42913;DHT22;50720;54.324;18.558;2023-07-20T14:54:30;21.60;99.90
42913;DHT22;50720;54.324;18.558;2023-07-20T14:57:00;21.40;99.90
42913;DHT22;50720;54.324;18.558;2023-07-20T14:59:31;21.20;99.90
42913;DHT22;50720;54.324;18.558;2023-07-20T15:02:01;21.20;99.90
42913;DHT22;50720;54.324;18.558;2023-07-20T15:04:31;21.20;99.90
42913;DHT22;50720;54.324;18.558;2023-07-20T15:07:00;21.30;99.90
42913;DHT22;50720;54.324;18.558;2023-07-20T15:09:32;21.30;99.90
42913;DHT22;50720;54.324;18.558;2023-07-20T15:12:03;21.40;99.90
42913;DHT22;50720;54.324;18.558;2023-07-20T15:14:33;21.20;99.90
42913;DHT22;50720;54.324;18.558;2023-07-20T15:17:03;21.10;99.90
42913;DHT22;50720;54.324;18.558;2023-07-20T15:19:33;20.80;99.90
42913;DHT22;50720;54.324;18.558;2023-07-20T15:22:04;20.60;99.90
42913;DHT22;50720;54.324;18.558;2023-07-20T15:24:36;21.30;99.90
42913;DHT22;50720;54.324;18.558;2023-07-20T15:27:06;22.20;99.90
42913;DHT22;50720;54.324;18.558;2023-07-20T15:29:36;22.70;99.90
42913;DHT22;50720;54.324;18.558;2023-07-20T15:32:07;23.20;99.90
42913;DHT22;50720;54.324;18.558;2023-07-20T15:34:37;22.90;99.90
42913;DHT22;50720;54.324;18.558;2023-07-20T15:37:07;22.00;99.90
42913;DHT22;50720;54.324;18.558;2023-07-20T15:39:38;21.90;99.90
42913;DHT22;50720;54.324;18.558;2023-07-20T15:42:09;21.50;99.90
42913;DHT22;50720;54.324;18.558;2023-07-20T15:44:39;21.20;99.90